This is the latest recevied weather packets stored in our database for station/object W0SS-13. If no packets are shown the sender has not sent any weather packets the latest 10 day(s).
| Time | Temp. | Humidity | Pressure | Rain* | Wind** | Luminosity | Snow |
|---|---|---|---|---|---|---|---|
| 1777959363 | 17.22° C | 63% | 1006 hPa | 0 mm | - | 0 W/m² | - |
| 1777959060 | 17.78° C | 58% | 1006 hPa | 0 mm | - | 0 W/m² | - |
| 1777958757 | 18.33° C | 52% | 1005.7 hPa | 0 mm | - | 0 W/m² | - |
| 1777958454 | 18.33° C | 53% | 1005.7 hPa | 0 mm | - | 0 W/m² | - |
| 1777958151 | 18.89° C | 55% | 1006 hPa | 0 mm | - | 0 W/m² | - |
| 1777957849 | 19.44° C | 52% | 1005.9 hPa | 0 mm | - | 0 W/m² | - |
| 1777957547 | 20° C | 48% | 1005.5 hPa | 0 mm | - | 0 W/m² | - |
| 1777957245 | 21.11° C | 48% | 1005.3 hPa | 0 mm | - | 0 W/m² | - |
| 1777956940 | 21.11° C | 51% | 1004.9 hPa | 0 mm | - | 0 W/m² | - |
| 1777956638 | 20.56° C | 71% | 1005 hPa | 0 mm | - | 0 W/m² | - |
| 1777956335 | 20.56° C | 73% | 1004.9 hPa | 0 mm | - | 0 W/m² | - |
| 1777956032 | 20.56° C | 73% | 1005 hPa | 0 mm | - | 0 W/m² | - |
| 1777955727 | 20.56° C | 73% | 1004.7 hPa | 0 mm | - | 0 W/m² | - |
| 1777955425 | 20.56° C | 72% | 1004.7 hPa | 0 mm | - | 0 W/m² | - |
| 1777955120 | 20.56° C | 72% | 1004.2 hPa | 0 mm | - | 0 W/m² | - |
| 1777954818 | 20.56° C | 72% | 1004.2 hPa | 0 mm | - | 0 W/m² | - |
| 1777954515 | 21.11° C | 71% | 1004.3 hPa | 0 mm | - | 0 W/m² | - |
| 1777954212 | 21.11° C | 71% | 1004.4 hPa | 0 mm | - | 0 W/m² | - |
| 1777953909 | 21.11° C | 71% | 1004.7 hPa | 0 mm | - | 0 W/m² | - |
| 1777953607 | 21.11° C | 71% | 1004.7 hPa | 0 mm | - | 0 W/m² | - |
| 1777953302 | 21.11° C | 71% | 1004.6 hPa | 0 mm | - | 0 W/m² | - |
| 1777953000 | 20.56° C | 71% | 1004.6 hPa | 0 mm | - | 0 W/m² | - |
| 1777952696 | 21.11° C | 71% | 1004.7 hPa | 0 mm | - | 0 W/m² | - |
| 1777952393 | 21.11° C | 70% | 1004.7 hPa | 0 mm | - | 0 W/m² | - |
| 1777952089 | 21.11° C | 70% | 1004.6 hPa | 0 mm | - | 0 W/m² | - |
* Rain latest hour (hover to see other rain measurements)
** Current wind speed in m/s (hover to see current wind gust speed)